Time;durP1;ratioP1;P1;durP2;ratioP2;P2;SDS_P1;SDS_P2;PMS_P1;PMS_P2;Temp;Humidity;BMP_temperature;BMP_pressure;BME280_temperature;BME280_humidity;BME280_pressure;Samples;Min_cycle;Max_cycle;Signal;HPM_P1;HPM_P2
2023/01/03 00:01:19;;;;;;;7.13;4.20;;;7.80;99.90;;;;;;5092909;28;20202;-77
2023/01/03 00:03:45;;;;;;;11.90;4.97;;;7.90;99.90;;;;;;5092990;28;20576;-79
2023/01/03 00:06:19;;;;;;;15.47;6.10;;;7.80;99.90;;;;;;5074868;28;20219;-79
2023/01/03 00:08:45;;;;;;;8.10;4.63;;;7.90;99.90;;;;;;5074606;28;20185;-77
2023/01/03 00:11:13;;;;;;;9.53;5.57;;;7.80;99.90;;;;;;5075069;28;20186;-79
2023/01/03 00:13:39;;;;;;;15.83;6.40;;;8.00;99.90;;;;;;5093436;28;20165;-78
2023/01/03 00:16:14;;;;;;;13.80;5.73;;;7.90;99.90;;;;;;5092689;28;20189;-78
2023/01/03 00:18:39;;;;;;;11.50;5.47;;;7.80;99.90;;;;;;5093086;28;20504;-77
2023/01/03 00:21:05;;;;;;;15.03;6.53;;;7.60;99.90;;;;;;5093107;28;20173;-77
2023/01/03 00:23:31;;;;;;;13.90;6.17;;;7.50;99.90;;;;;;5075003;28;20267;-77
2023/01/03 00:25:57;;;;;;;11.27;5.33;;;7.50;99.90;;;;;;5074615;28;20205;-77
2023/01/03 00:28:22;;;;;;;11.23;6.53;;;7.60;99.90;;;;;;5074667;28;20179;-76
2023/01/03 00:30:48;;;;;;;17.00;6.93;;;7.70;99.90;;;;;;5092459;28;20199;-77
2023/01/03 00:33:13;;;;;;;9.97;5.50;;;7.60;99.90;;;;;;5074713;28;20181;-78
2023/01/03 00:35:39;;;;;;;13.23;6.17;;;7.70;99.90;;;;;;5074665;28;20238;-77
2023/01/03 00:38:04;;;;;;;12.60;6.53;;;7.70;99.90;;;;;;5092637;28;20641;-77
2023/01/03 00:40:30;;;;;;;10.53;5.73;;;7.60;99.90;;;;;;5074680;28;20179;-77
2023/01/03 00:45:40;;;;;;;12.77;5.93;;;7.80;99.90;;;;;;5092325;28;20221;-78
2023/01/03 00:48:05;;;;;;;12.97;6.13;;;7.80;99.90;;;;;;5092552;28;20189;-77
2023/01/03 00:50:31;;;;;;;13.83;6.20;;;7.60;99.90;;;;;;5092340;28;20224;-77
2023/01/03 00:52:56;;;;;;;11.67;6.47;;;7.50;99.90;;;;;;5092596;28;20209;-77
2023/01/03 00:55:22;;;;;;;13.90;7.63;;;7.60;99.90;;;;;;5074322;28;20178;-78
2023/01/03 00:57:48;;;;;;;9.97;6.03;;;7.50;99.90;;;;;;5074551;28;20183;-77
2023/01/03 01:00:14;;;;;;;19.13;6.10;;;7.40;99.90;;;;;;5092220;28;20177;-76
2023/01/03 01:02:39;;;;;;;12.50;6.43;;;7.40;99.90;;;;;;5092468;28;20680;-77
2023/01/03 01:05:05;;;;;;;10.63;5.93;;;7.50;99.90;;;;;;5092312;28;20219;-77
2023/01/03 01:07:30;;;;;;;9.77;5.70;;;7.40;99.90;;;;;;5074364;28;20594;-76
2023/01/03 01:09:56;;;;;;;11.50;5.53;;;7.50;99.90;;;;;;5074214;28;20520;-77
2023/01/03 01:12:23;;;;;;;13.27;5.80;;;7.50;99.90;;;;;;5074305;28;20180;-77
2023/01/03 01:14:48;;;;;;;9.23;5.33;;;7.50;99.90;;;;;;5074053;28;20175;-76
2023/01/03 01:17:14;;;;;;;9.93;5.27;;;7.50;99.90;;;;;;5092556;28;20634;-76
2023/01/03 01:19:42;;;;;;;16.70;7.20;;;7.50;99.90;;;;;;5074322;28;20184;-76
2023/01/03 01:22:10;;;;;;;10.37;5.43;;;7.60;99.90;;;;;;5074250;28;20635;-76
2023/01/03 01:24:36;;;;;;;14.80;5.93;;;7.50;99.90;;;;;;5074094;28;20214;-76
2023/01/03 01:27:03;;;;;;;16.93;6.23;;;7.50;99.90;;;;;;5092250;28;20630;-77
2023/01/03 01:29:29;;;;;;;16.73;6.27;;;7.50;99.90;;;;;;5094344;28;20181;-77
2023/01/03 01:31:55;;;;;;;16.33;7.03;;;7.60;99.90;;;;;;5078093;28;20196;-76
2023/01/03 01:34:20;;;;;;;12.33;5.57;;;7.70;99.90;;;;;;5096148;28;20159;-76
2023/01/03 01:36:47;;;;;;;12.97;5.13;;;7.60;99.90;;;;;;5077991;28;20185;-76
2023/01/03 01:39:16;;;;;;;8.87;5.37;;;7.50;99.90;;;;;;5096201;28;20179;-76
2023/01/03 01:44:59;;;;;;;8.47;5.47;;;7.50;99.90;;;;;;5095767;28;20707;-77
2023/01/03 01:47:40;;;;;;;17.43;6.77;;;7.40;99.90;;;;;;5095667;28;20671;-76
2023/01/03 01:50:17;;;;;;;13.43;6.17;;;7.40;99.90;;;;;;5096007;28;20174;-77
2023/01/03 01:53:08;;;;;;;13.20;5.50;;;7.40;99.90;;;;;;5095902;28;20664;-77
2023/01/03 01:55:45;;;;;;;15.83;5.43;;;7.40;99.90;;;;;;5077449;28;20582;-76
2023/01/03 01:58:11;;;;;;;9.27;5.07;;;7.40;99.90;;;;;;5095535;28;20428;-77
2023/01/03 02:00:39;;;;;;;8.70;6.07;;;7.30;99.90;;;;;;5077608;28;20616;-77
2023/01/03 02:03:06;;;;;;;13.67;5.80;;;7.30;99.90;;;;;;5077616;28;20223;-77
2023/01/03 02:05:35;;;;;;;11.27;4.97;;;7.30;99.90;;;;;;5095621;28;20306;-77
2023/01/03 02:08:01;;;;;;;15.30;5.70;;;7.30;99.90;;;;;;5077338;28;20188;-77
2023/01/03 02:10:43;;;;;;;10.93;5.63;;;7.30;99.90;;;;;;5077343;28;20177;-77
2023/01/03 02:13:46;;;;;;;12.20;5.97;;;7.30;99.90;;;;;;5095376;28;20213;-75
2023/01/03 02:16:22;;;;;;;11.10;5.73;;;7.20;99.90;;;;;;5095349;28;20172;-76
2023/01/03 02:18:59;;;;;;;8.97;5.40;;;7.30;99.90;;;;;;5095414;28;20541;-77
2023/01/03 02:21:58;;;;;;;10.70;5.90;;;7.30;99.90;;;;;;5076888;28;20647;-77
2023/01/03 02:24:27;;;;;;;11.37;5.50;;;7.30;99.90;;;;;;5077163;28;20263;-77
2023/01/03 02:27:01;;;;;;;9.87;5.57;;;7.30;99.90;;;;;;5095021;28;20546;-77
2023/01/03 02:29:27;;;;;;;14.27;6.00;;;7.20;99.90;;;;;;5095490;28;20188;-77
2023/01/03 02:32:10;;;;;;;11.13;5.27;;;7.30;99.90;;;;;;5076998;28;20194;-79
2023/01/03 02:35:03;;;;;;;12.03;5.93;;;7.20;99.90;;;;;;5095155;28;20203;-78
2023/01/03 02:37:43;;;;;;;9.83;5.23;;;7.20;99.90;;;;;;5095131;28;20262;-78
2023/01/03 02:40:31;;;;;;;10.73;5.20;;;7.20;99.90;;;;;;5076523;28;20184;-78
2023/01/03 02:43:11;;;;;;;8.97;5.33;;;7.20;99.90;;;;;;5076917;28;20189;-77
2023/01/03 02:45:47;;;;;;;9.57;5.87;;;7.10;99.90;;;;;;5094738;28;20199;-78
2023/01/03 02:48:16;;;;;;;10.87;5.80;;;7.10;99.90;;;;;;5076812;28;20235;-77
2023/01/03 02:50:47;;;;;;;8.57;5.67;;;7.10;99.90;;;;;;5076676;28;20174;-78
2023/01/03 02:53:20;;;;;;;12.67;6.07;;;7.10;99.90;;;;;;5076627;28;20632;-78
2023/01/03 02:55:50;;;;;;;10.00;5.43;;;7.10;99.90;;;;;;5094539;28;20282;-79
2023/01/03 02:58:22;;;;;;;7.87;5.50;;;7.10;99.90;;;;;;5094712;28;20191;-78
2023/01/03 03:00:51;;;;;;;12.70;5.40;;;7.10;99.90;;;;;;5094768;28;20175;-79
2023/01/03 03:03:22;;;;;;;11.00;5.37;;;7.10;99.90;;;;;;5094607;28;20214;-79
2023/01/03 03:06:31;;;;;;;8.73;5.57;;;7.20;99.90;;;;;;5094366;28;20709;-79
2023/01/03 03:08:57;;;;;;;11.03;5.13;;;7.10;99.90;;;;;;5092461;28;20180;-79
2023/01/03 03:14:24;;;;;;;8.37;5.33;;;7.20;99.90;;;;;;5095015;28;20182;-79
2023/01/03 03:16:52;;;;;;;12.47;5.27;;;7.10;99.90;;;;;;5094412;28;20652;-77
2023/01/03 03:25:23;;;;;;;8.93;5.20;;;7.20;99.90;;;;;;5094179;28;20210;-78
2023/01/03 03:30:40;;;;;;;9.93;4.83;;;7.10;99.90;;;;;;5094338;28;20279;-78
2023/01/03 03:33:09;;;;;;;7.30;4.70;;;7.00;99.90;;;;;;5094143;28;20666;-78
2023/01/03 03:35:49;;;;;;;8.23;4.90;;;7.00;99.90;;;;;;5094227;28;20159;-78
2023/01/03 03:38:24;;;;;;;8.67;4.80;;;6.90;99.90;;;;;;5093588;28;20167;-78
2023/01/03 03:46:43;;;;;;;9.73;4.60;;;6.90;99.90;;;;;;5094016;28;20191;-78
2023/01/03 03:52:02;;;;;;;5.97;4.20;;;6.80;99.90;;;;;;5093681;28;20641;-79
2023/01/03 03:54:33;;;;;;;11.40;5.10;;;6.90;99.90;;;;;;5093615;28;20203;-77
2023/01/03 03:57:11;;;;;;;7.50;4.63;;;6.90;99.90;;;;;;5094104;28;20636;-77
2023/01/03 03:59:38;;;;;;;7.10;4.63;;;7.00;99.90;;;;;;5093856;28;20166;-77
2023/01/03 04:02:07;;;;;;;10.73;4.80;;;7.20;99.90;;;;;;5093994;28;20658;-78
2023/01/03 04:04:37;;;;;;;7.23;4.83;;;7.20;99.90;;;;;;5093710;28;20205;-77
2023/01/03 04:07:04;;;;;;;7.90;5.00;;;7.20;99.90;;;;;;5075630;28;20319;-77
2023/01/03 04:09:29;;;;;;;7.83;5.03;;;7.20;99.90;;;;;;5093821;28;20635;-77
2023/01/03 04:11:56;;;;;;;8.27;4.43;;;7.20;99.90;;;;;;5093590;28;20175;-77
2023/01/03 04:14:21;;;;;;;8.70;4.60;;;7.20;99.90;;;;;;5093477;28;20180;-77
2023/01/03 04:16:47;;;;;;;9.90;4.40;;;7.20;99.90;;;;;;5093710;28;20175;-77
2023/01/03 04:19:12;;;;;;;9.57;5.00;;;7.30;99.90;;;;;;5075573;28;20186;-78
2023/01/03 04:21:38;;;;;;;7.77;4.03;;;7.30;99.90;;;;;;5075353;28;20175;-79
2023/01/03 04:24:04;;;;;;;7.67;4.80;;;7.30;99.90;;;;;;5093186;28;20224;-79
2023/01/03 04:26:30;;;;;;;8.97;5.27;;;7.20;99.90;;;;;;5093430;28;20164;-79
2023/01/03 04:28:56;;;;;;;8.53;5.60;;;7.10;99.90;;;;;;5093259;28;20183;-78
2023/01/03 04:31:22;;;;;;;14.00;6.20;;;7.10;99.90;;;;;;5075218;28;20192;-78
2023/01/03 04:33:49;;;;;;;12.10;5.60;;;7.10;99.90;;;;;;5093620;28;20270;-78
2023/01/03 04:36:17;;;;;;;9.77;6.03;;;7.10;99.90;;;;;;5074899;28;20175;-77
2023/01/03 04:38:42;;;;;;;12.20;5.67;;;7.30;99.90;;;;;;5093429;28;20192;-78
2023/01/03 04:41:09;;;;;;;10.47;5.60;;;7.30;99.90;;;;;;5093383;28;20171;-78
2023/01/03 04:46:20;;;;;;;10.30;6.03;;;7.30;99.90;;;;;;5093828;28;20172;-79
2023/01/03 04:48:47;;;;;;;10.80;6.67;;;7.20;99.90;;;;;;5093160;28;20174;-78
2023/01/03 04:51:14;;;;;;;10.83;6.23;;;7.10;99.90;;;;;;5074854;28;20182;-78
2023/01/03 04:53:39;;;;;;;11.60;6.73;;;7.20;99.90;;;;;;5075080;28;20714;-79
2023/01/03 04:56:05;;;;;;;10.67;6.07;;;7.30;99.90;;;;;;5093019;28;20175;-78
2023/01/03 04:58:31;;;;;;;13.07;7.93;;;7.30;99.90;;;;;;5093220;28;20180;-78
2023/01/03 05:01:01;;;;;;;10.67;7.33;;;7.50;99.90;;;;;;5093019;28;20209;-79
2023/01/03 05:03:27;;;;;;;12.17;8.30;;;7.50;99.90;;;;;;5093135;28;20180;-79
2023/01/03 05:06:01;;;;;;;13.57;8.33;;;7.50;99.90;;;;;;5074516;28;20207;-79
2023/01/03 05:08:26;;;;;;;13.33;7.70;;;7.50;99.90;;;;;;5092894;28;20170;-79
2023/01/03 05:10:52;;;;;;;12.80;7.50;;;7.40;99.90;;;;;;5092796;28;20237;-76
2023/01/03 05:13:18;;;;;;;13.50;7.73;;;7.50;99.90;;;;;;5093135;28;20179;-79
2023/01/03 05:15:44;;;;;;;14.70;8.53;;;7.50;99.90;;;;;;5093010;28;20207;-78
2023/01/03 05:18:10;;;;;;;14.83;8.30;;;7.30;99.90;;;;;;5093067;28;20209;-78
2023/01/03 05:26:18;;;;;;;13.77;9.00;;;7.30;99.90;;;;;;5093146;28;20256;-77
2023/01/03 05:28:46;;;;;;;20.37;9.43;;;7.30;99.90;;;;;;5092778;28;20178;-77
2023/01/03 05:31:12;;;;;;;16.90;9.50;;;7.20;99.90;;;;;;5074472;28;20198;-76
2023/01/03 05:33:38;;;;;;;15.60;9.73;;;7.10;99.90;;;;;;5092833;28;20182;-77
2023/01/03 05:36:05;;;;;;;16.50;9.97;;;7.00;99.90;;;;;;5074307;28;20183;-79
2023/01/03 05:38:31;;;;;;;17.43;9.63;;;7.00;99.90;;;;;;5092766;28;20184;-76
2023/01/03 05:40:57;;;;;;;17.10;10.40;;;7.00;99.90;;;;;;5092707;28;20176;-78
2023/01/03 05:43:23;;;;;;;19.40;10.37;;;7.00;99.90;;;;;;5074460;28;20202;-77
2023/01/03 05:45:50;;;;;;;17.47;10.27;;;7.10;99.90;;;;;;5092488;28;20207;-77
2023/01/03 05:48:18;;;;;;;15.03;9.80;;;7.20;99.90;;;;;;5092692;28;20504;-77
2023/01/03 05:50:46;;;;;;;17.90;9.93;;;7.30;99.90;;;;;;5092422;28;20180;-78
2023/01/03 05:53:12;;;;;;;18.40;10.27;;;7.50;99.90;;;;;;5074640;28;20646;-78
2023/01/03 05:55:38;;;;;;;19.00;11.20;;;7.40;99.90;;;;;;5092756;28;20203;-78
2023/01/03 05:58:05;;;;;;;19.37;10.87;;;7.40;99.90;;;;;;5074645;28;20192;-78
2023/01/03 06:00:32;;;;;;;18.47;10.07;;;7.50;99.90;;;;;;5092630;28;20262;-78
2023/01/03 06:02:58;;;;;;;18.53;10.70;;;7.60;99.90;;;;;;5074311;28;20692;-78
2023/01/03 06:05:24;;;;;;;18.53;9.57;;;7.50;99.90;;;;;;5092443;28;20212;-78
2023/01/03 06:07:50;;;;;;;15.23;8.57;;;7.50;99.90;;;;;;5092673;28;20179;-78
2023/01/03 06:10:16;;;;;;;14.20;8.87;;;7.60;99.90;;;;;;5092796;28;20180;-79
2023/01/03 06:12:41;;;;;;;13.87;8.83;;;7.50;99.90;;;;;;5092578;28;20268;-79
2023/01/03 06:15:07;;;;;;;15.37;7.97;;;7.50;99.90;;;;;;5076045;28;20179;-79
2023/01/03 06:20:17;;;;;;;14.17;8.13;;;7.50;99.90;;;;;;5096408;28;20175;-78
2023/01/03 06:22:42;;;;;;;12.47;8.30;;;7.60;99.90;;;;;;5096190;28;20176;-79
2023/01/03 06:25:09;;;;;;;14.40;8.03;;;7.50;99.90;;;;;;5095884;28;20192;-79
2023/01/03 06:27:35;;;;;;;14.30;8.33;;;7.50;99.90;;;;;;5095852;28;20162;-79
2023/01/03 06:30:01;;;;;;;13.53;8.10;;;7.70;99.90;;;;;;5096215;28;20667;-79
2023/01/03 06:32:26;;;;;;;12.07;8.27;;;7.70;99.90;;;;;;5077705;28;20646;-79
2023/01/03 06:34:52;;;;;;;11.43;7.57;;;7.70;99.90;;;;;;5095847;28;20171;-80
2023/01/03 06:37:17;;;;;;;17.07;9.07;;;7.70;99.90;;;;;;5077627;28;20188;-79
2023/01/03 06:39:44;;;;;;;18.47;9.40;;;7.80;99.90;;;;;;5096165;28;20186;-78
2023/01/03 06:42:44;;;;;;;11.10;7.67;;;8.10;99.90;;;;;;5095361;28;20173;-79
2023/01/03 06:53:20;;;;;;;16.60;9.03;;;7.60;99.90;;;;;;5095530;28;20163;-79
2023/01/03 06:55:47;;;;;;;15.20;8.53;;;7.70;99.90;;;;;;5095126;28;20204;-78
2023/01/03 06:58:12;;;;;;;14.83;9.57;;;7.80;99.90;;;;;;5077249;28;20184;-80
2023/01/03 07:00:43;;;;;;;18.57;11.60;;;7.80;99.90;;;;;;5077411;28;20233;-79
2023/01/03 07:03:08;;;;;;;14.57;8.63;;;7.90;99.90;;;;;;5095309;28;20270;-80
2023/01/03 07:05:34;;;;;;;12.50;7.83;;;8.00;99.90;;;;;;5095118;28;20291;-76
2023/01/03 07:07:59;;;;;;;15.43;8.33;;;8.10;99.90;;;;;;5076782;28;20177;-75
2023/01/03 07:10:25;;;;;;;12.33;6.93;;;8.30;99.90;;;;;;5076559;28;20276;-74
2023/01/03 07:15:35;;;;;;;12.80;6.73;;;8.20;99.90;;;;;;5094969;28;20190;-74
2023/01/03 07:18:01;;;;;;;9.57;6.40;;;8.20;99.90;;;;;;5094397;28;20540;-74
2023/01/03 07:20:27;;;;;;;10.03;6.30;;;8.20;99.90;;;;;;5094709;28;20176;-74
2023/01/03 07:22:53;;;;;;;11.30;6.30;;;8.10;99.90;;;;;;5076421;28;20177;-74
2023/01/03 07:25:19;;;;;;;11.53;6.00;;;8.10;99.90;;;;;;5076368;28;20207;-79
2023/01/03 07:27:53;;;;;;;11.33;6.50;;;8.10;99.90;;;;;;5075324;28;20182;-76
2023/01/03 07:30:18;;;;;;;12.17;5.87;;;8.10;99.90;;;;;;5094253;28;20200;-77
2023/01/03 07:32:44;;;;;;;9.60;6.30;;;8.10;99.90;;;;;;5094458;28;20177;-75
2023/01/03 07:35:11;;;;;;;12.73;5.47;;;8.10;99.90;;;;;;5094298;28;20257;-76
2023/01/03 07:37:36;;;;;;;12.27;5.30;;;8.20;99.90;;;;;;5094246;28;20206;-75
2023/01/03 07:40:02;;;;;;;8.87;5.03;;;8.20;99.90;;;;;;5094324;28;20654;-75
2023/01/03 07:45:12;;;;;;;9.97;5.10;;;8.10;99.90;;;;;;5093797;28;20196;-75
2023/01/03 07:47:43;;;;;;;12.80;6.20;;;8.20;99.90;;;;;;5076010;28;20176;-75
2023/01/03 07:50:08;;;;;;;17.23;5.87;;;8.50;99.90;;;;;;5075641;28;20199;-75
2023/01/03 07:52:34;;;;;;;14.70;6.37;;;8.50;99.90;;;;;;5075886;28;20176;-75
2023/01/03 07:55:00;;;;;;;10.50;5.53;;;8.60;99.90;;;;;;5093797;28;20175;-76
2023/01/03 07:57:25;;;;;;;12.17;5.67;;;8.40;99.90;;;;;;5093904;28;20672;-77
2023/01/03 07:59:51;;;;;;;11.90;6.07;;;8.30;99.90;;;;;;5075418;28;20234;-76
2023/01/03 08:02:18;;;;;;;10.67;6.77;;;8.40;99.90;;;;;;5075686;28;20188;-76
2023/01/03 08:04:43;;;;;;;11.60;6.53;;;8.60;99.90;;;;;;5093671;28;20200;-76
2023/01/03 08:07:09;;;;;;;9.20;5.93;;;8.50;99.90;;;;;;5093644;28;20240;-75
2023/01/03 08:15:03;;;;;;;10.80;6.10;;;8.50;99.90;;;;;;5093390;28;20192;-75
2023/01/03 08:17:29;;;;;;;15.60;7.30;;;8.40;99.90;;;;;;5075422;28;20185;-76
2023/01/03 08:19:55;;;;;;;10.10;6.33;;;8.40;99.90;;;;;;5075214;28;20708;-76
2023/01/03 08:22:20;;;;;;;14.53;6.37;;;8.50;99.90;;;;;;5075388;28;20267;-76
2023/01/03 08:24:46;;;;;;;13.30;7.07;;;8.70;99.90;;;;;;5093246;28;20681;-76
2023/01/03 08:27:13;;;;;;;9.67;5.67;;;8.80;99.90;;;;;;5075158;28;20165;-75
2023/01/03 08:29:38;;;;;;;16.30;6.73;;;8.60;99.90;;;;;;5092998;28;20170;-75
2023/01/03 08:32:05;;;;;;;14.40;6.07;;;8.60;99.90;;;;;;5075330;28;20172;-76
2023/01/03 08:34:35;;;;;;;14.13;7.13;;;8.60;99.90;;;;;;5075249;28;20190;-76
2023/01/03 08:37:09;;;;;;;9.13;5.73;;;8.60;99.90;;;;;;5093039;28;20177;-75
2023/01/03 08:39:41;;;;;;;13.47;6.93;;;8.50;99.90;;;;;;5075031;28;20188;-76
2023/01/03 08:42:11;;;;;;;12.40;7.37;;;8.40;99.90;;;;;;5093103;28;20181;-76
2023/01/03 08:44:38;;;;;;;14.10;6.73;;;8.40;99.90;;;;;;5092738;28;20209;-75
2023/01/03 08:47:05;;;;;;;12.87;8.03;;;8.50;99.90;;;;;;5093040;28;20202;-76
2023/01/03 08:49:31;;;;;;;13.63;7.80;;;8.60;99.90;;;;;;5092939;28;20190;-76
2023/01/03 08:51:57;;;;;;;16.37;7.93;;;8.60;99.90;;;;;;5093062;28;20174;-76
2023/01/03 08:54:22;;;;;;;13.57;7.87;;;8.80;99.90;;;;;;5074777;28;20265;-75
2023/01/03 08:56:48;;;;;;;16.33;9.00;;;9.00;99.90;;;;;;5092907;28;20181;-76
2023/01/03 08:59:14;;;;;;;17.83;7.50;;;9.00;99.90;;;;;;5074619;28;20707;-76
2023/01/03 09:01:40;;;;;;;13.67;7.10;;;8.70;99.90;;;;;;5092910;28;20220;-75
2023/01/03 09:04:06;;;;;;;17.07;7.07;;;8.80;99.90;;;;;;5074659;28;20277;-76
2023/01/03 09:06:33;;;;;;;12.17;7.23;;;8.90;99.90;;;;;;5074691;28;20270;-76
2023/01/03 09:09:05;;;;;;;13.77;8.20;;;8.90;99.90;;;;;;5092587;28;20532;-75
2023/01/03 09:11:33;;;;;;;14.40;7.43;;;8.80;99.90;;;;;;5074444;28;20185;-75
2023/01/03 09:13:59;;;;;;;15.17;7.20;;;8.70;99.90;;;;;;5074595;28;20174;-74
2023/01/03 09:16:26;;;;;;;13.43;8.23;;;8.60;99.90;;;;;;5092551;28;20179;-75
2023/01/03 09:18:51;;;;;;;13.30;8.13;;;8.60;99.90;;;;;;5074542;28;20234;-75
2023/01/03 09:21:17;;;;;;;16.47;9.30;;;8.50;99.90;;;;;;5074323;28;20256;-75
2023/01/03 09:23:43;;;;;;;15.20;8.30;;;8.60;99.90;;;;;;5074546;28;20180;-75
2023/01/03 09:26:08;;;;;;;12.50;8.47;;;8.50;99.90;;;;;;5092666;28;20198;-75
2023/01/03 09:28:35;;;;;;;24.10;10.10;;;8.40;99.90;;;;;;5092861;28;20173;-74
2023/01/03 09:31:01;;;;;;;20.63;9.57;;;8.50;99.90;;;;;;5074369;28;20200;-74
2023/01/03 09:33:26;;;;;;;12.40;7.40;;;8.50;99.90;;;;;;5093249;28;20178;-74
2023/01/03 09:35:55;;;;;;;10.77;8.07;;;8.30;99.90;;;;;;5092760;28;20210;-75
2023/01/03 09:38:22;;;;;;;15.47;7.90;;;8.30;99.90;;;;;;5074426;28;20723;-75
2023/01/03 09:41:00;;;;;;;11.77;7.10;;;8.20;99.90;;;;;;5074025;28;20183;-75
2023/01/03 09:43:34;;;;;;;13.20;7.37;;;8.20;99.90;;;;;;5092509;28;20195;-76
2023/01/03 09:46:00;;;;;;;14.70;6.87;;;8.30;99.90;;;;;;5074729;28;20206;-75
2023/01/03 09:48:39;;;;;;;10.07;6.20;;;8.30;99.90;;;;;;5074465;28;20187;-77
2023/01/03 10:05:17;;;;;;;7.73;4.80;;;8.40;99.90;;;;;;5096159;28;20287;-74
2023/01/03 10:07:54;;;;;;;12.07;5.27;;;8.30;99.90;;;;;;5077828;28;20168;-75
2023/01/03 10:10:37;;;;;;;11.97;4.93;;;8.40;99.90;;;;;;5077493;28;20630;-75
2023/01/03 10:13:21;;;;;;;9.27;4.57;;;8.30;99.90;;;;;;5077802;28;20218;-76
2023/01/03 10:16:02;;;;;;;8.83;4.57;;;8.30;99.90;;;;;;5077687;28;20177;-75
2023/01/03 10:18:59;;;;;;;9.73;4.23;;;8.40;99.90;;;;;;5095872;28;20695;-75
2023/01/03 10:21:33;;;;;;;8.67;4.77;;;8.40;99.90;;;;;;5095809;28;20169;-75
2023/01/03 10:23:59;;;;;;;6.50;3.93;;;8.60;99.90;;;;;;5077591;28;20180;-75
2023/01/03 10:26:28;;;;;;;6.23;4.10;;;8.70;99.90;;;;;;5095540;28;20182;-75
2023/01/03 10:28:53;;;;;;;10.53;4.53;;;8.70;99.90;;;;;;5077604;28;20673;-75
2023/01/03 10:31:29;;;;;;;9.27;3.97;;;8.80;99.90;;;;;;5095431;28;20288;-75
2023/01/03 10:33:55;;;;;;;9.77;4.07;;;8.90;99.90;;;;;;5095370;28;20196;-75
2023/01/03 10:36:22;;;;;;;8.33;3.60;;;8.80;99.90;;;;;;5095604;28;20695;-76
2023/01/03 10:39:02;;;;;;;7.13;3.93;;;8.70;99.90;;;;;;5076974;28;20227;-76
2023/01/03 10:41:32;;;;;;;10.57;4.23;;;8.90;99.90;;;;;;5077277;28;20718;-75
2023/01/03 10:44:02;;;;;;;7.30;3.47;;;9.00;99.90;;;;;;5095274;28;20213;-76
2023/01/03 10:46:29;;;;;;;8.17;3.33;;;9.10;99.90;;;;;;5077206;28;20560;-75
2023/01/03 10:49:10;;;;;;;6.97;3.07;;;9.10;99.90;;;;;;5077096;28;20277;-75
2023/01/03 10:51:48;;;;;;;6.67;3.43;;;9.10;99.90;;;;;;5077173;28;20391;-75
2023/01/03 10:54:16;;;;;;;8.93;3.40;;;9.10;99.90;;;;;;5094939;28;20261;-75
2023/01/03 10:56:43;;;;;;;7.37;3.57;;;9.10;99.90;;;;;;5095026;28;20544;-75
2023/01/03 10:59:25;;;;;;;9.17;3.70;;;9.20;99.90;;;;;;5094758;28;20699;-75
2023/01/03 11:01:58;;;;;;;8.77;3.13;;;9.30;99.90;;;;;;5095037;28;20610;-74
2023/01/03 11:04:24;;;;;;;7.20;3.23;;;9.30;99.90;;;;;;5076459;28;20300;-74
2023/01/03 11:07:00;;;;;;;7.10;3.20;;;9.40;99.90;;;;;;5094853;28;20201;-75
2023/01/03 11:09:32;;;;;;;5.03;2.40;;;9.70;99.90;;;;;;5094529;28;20184;-75
2023/01/03 11:12:11;;;;;;;5.73;3.17;;;9.70;99.90;;;;;;5094739;28;20639;-75
2023/01/03 11:14:51;;;;;;;10.30;2.80;;;9.30;99.90;;;;;;5076595;28;20217;-75
2023/01/03 11:17:20;;;;;;;7.13;3.27;;;9.20;99.90;;;;;;5094746;28;20666;-75
2023/01/03 11:19:46;;;;;;;5.37;3.50;;;9.30;99.90;;;;;;5094566;28;20224;-75
2023/01/03 11:22:23;;;;;;;10.10;4.17;;;9.30;99.90;;;;;;5076264;28;20174;-75
2023/01/03 11:25:20;;;;;;;9.93;4.10;;;9.50;99.90;;;;;;5094100;28;20205;-75
2023/01/03 11:28:01;;;;;;;8.47;3.97;;;9.50;99.90;;;;;;5094531;28;20182;-75
2023/01/03 11:31:10;;;;;;;7.33;3.90;;;9.50;99.90;;;;;;5076240;28;20615;-75
2023/01/03 11:34:03;;;;;;;10.50;3.47;;;9.40;99.90;;;;;;5089261;28;20555;-75
2023/01/03 11:36:43;;;;;;;6.07;3.10;;;9.70;99.90;;;;;;5094272;28;20197;-75
2023/01/03 11:39:20;;;;;;;9.03;3.73;;;9.40;99.90;;;;;;5075970;28;20201;-75
2023/01/03 11:42:13;;;;;;;5.40;3.30;;;9.50;99.90;;;;;;5076163;28;20227;-75
2023/01/03 11:45:04;;;;;;;8.77;3.50;;;9.70;99.90;;;;;;5075622;28;20202;-75
2023/01/03 11:47:35;;;;;;;5.37;2.90;;;9.70;99.90;;;;;;5094092;28;20722;-75
2023/01/03 11:50:24;;;;;;;8.63;3.57;;;9.80;99.90;;;;;;5093944;28;20228;-74
2023/01/03 11:53:10;;;;;;;10.43;3.60;;;9.70;99.90;;;;;;5075490;28;20202;-75
2023/01/03 11:56:13;;;;;;;9.53;4.17;;;9.60;99.90;;;;;;5075556;28;20614;-75
2023/01/03 11:59:23;;;;;;;6.93;3.37;;;9.80;99.90;;;;;;5093561;28;20189;-75
2023/01/03 12:02:56;;;;;;;11.80;3.57;;;9.60;99.90;;;;;;5093653;28;20237;-75
2023/01/03 12:05:42;;;;;;;10.77;3.47;;;9.50;99.90;;;;;;4957724;28;20217;-75
2023/01/03 12:08:10;;;;;;;8.43;3.07;;;9.70;99.90;;;;;;5086735;28;20180;-75
2023/01/03 12:10:54;;;;;;;9.80;3.33;;;9.80;99.90;;;;;;5075128;28;20178;-75
2023/01/03 12:13:26;;;;;;;8.30;3.10;;;9.90;99.90;;;;;;5092928;28;20533;-75
2023/01/03 12:16:22;;;;;;;7.00;3.37;;;10.00;99.90;;;;;;5093383;28;20179;-75
2023/01/03 12:19:21;;;;;;;9.57;3.30;;;10.20;99.90;;;;;;5093304;28;20178;-75
2023/01/03 12:22:12;;;;;;;9.77;2.90;;;10.10;99.90;;;;;;5093302;28;20186;-76
2023/01/03 12:24:55;;;;;;;7.63;2.90;;;9.90;99.90;;;;;;5075075;28;20683;-76
2023/01/03 12:27:31;;;;;;;5.97;3.00;;;9.70;99.90;;;;;;5075235;28;20631;-76
2023/01/03 12:30:20;;;;;;;11.53;3.50;;;9.70;99.90;;;;;;5074791;28;20578;-74
2023/01/03 12:32:52;;;;;;;7.67;3.07;;;9.90;99.90;;;;;;5074759;28;20644;-75
2023/01/03 12:35:41;;;;;;;5.30;2.90;;;10.00;99.90;;;;;;5074590;28;20218;-75
2023/01/03 12:38:09;;;;;;;11.53;3.13;;;9.90;99.90;;;;;;5093085;28;20209;-74
2023/01/03 12:40:55;;;;;;;6.90;2.77;;;10.20;99.90;;;;;;5092806;28;20181;-75
2023/01/03 12:43:58;;;;;;;8.50;3.10;;;10.00;99.90;;;;;;5093168;28;20207;-74
2023/01/03 12:46:34;;;;;;;6.47;2.47;;;9.80;99.90;;;;;;5092699;28;20248;-77
2023/01/03 12:49:21;;;;;;;10.27;2.70;;;9.90;99.90;;;;;;5093159;28;20176;-75
2023/01/03 12:51:46;;;;;;;10.53;2.70;;;9.80;99.90;;;;;;5092916;28;20175;-75
2023/01/03 12:54:16;;;;;;;8.97;3.03;;;9.80;99.90;;;;;;5092917;28;20566;-75
2023/01/03 12:57:11;;;;;;;6.60;2.47;;;9.90;99.90;;;;;;5074710;28;20178;-76
2023/01/03 12:59:58;;;;;;;4.60;2.20;;;9.90;99.90;;;;;;5038703;28;20182;-76
2023/01/03 13:02:33;;;;;;;6.83;2.50;;;9.90;99.90;;;;;;5092811;28;20285;-75
2023/01/03 13:05:14;;;;;;;6.63;2.47;;;9.80;99.90;;;;;;5092655;28;20666;-75
2023/01/03 13:07:44;;;;;;;13.17;3.13;;;9.80;99.90;;;;;;5074658;28;20174;-75
2023/01/03 13:10:16;;;;;;;7.17;2.87;;;9.90;99.90;;;;;;5074655;28;20201;-75
2023/01/03 13:12:47;;;;;;;6.93;3.60;;;10.00;99.90;;;;;;5092815;28;20182;-75
2023/01/03 13:15:34;;;;;;;10.53;2.90;;;10.00;99.90;;;;;;5092688;28;20178;-76
2023/01/03 13:18:21;;;;;;;8.03;3.00;;;10.20;99.90;;;;;;5074465;28;20179;-74
2023/01/03 13:20:51;;;;;;;4.60;1.93;;;10.30;99.90;;;;;;5092692;28;20189;-75
2023/01/03 13:23:20;;;;;;;9.90;2.20;;;10.30;99.90;;;;;;5074714;28;20703;-75
2023/01/03 13:26:11;;;;;;;10.67;3.60;;;10.30;99.90;;;;;;5096842;28;20205;-75
2023/01/03 13:28:38;;;;;;;4.50;2.60;;;10.20;99.90;;;;;;5078440;28;20191;-75
2023/01/03 13:31:20;;;;;;;9.70;2.60;;;10.10;99.90;;;;;;5096449;28;20194;-75
2023/01/03 13:33:55;;;;;;;9.83;2.50;;;10.20;99.90;;;;;;5096518;28;20801;-75
2023/01/03 13:36:22;;;;;;;11.83;2.87;;;10.30;99.90;;;;;;5096495;28;20166;-75
2023/01/03 13:38:47;;;;;;;9.57;2.80;;;10.30;99.90;;;;;;5096647;28;20182;-75
2023/01/03 13:41:37;;;;;;;7.77;3.20;;;10.20;99.90;;;;;;5078032;28;20640;-75
2023/01/03 13:44:18;;;;;;;9.20;2.93;;;10.40;99.90;;;;;;5078046;28;20182;-75
2023/01/03 13:46:45;;;;;;;9.10;2.87;;;10.50;99.90;;;;;;5077917;28;20278;-75
2023/01/03 13:49:22;;;;;;;10.63;3.40;;;10.40;99.90;;;;;;5096024;28;20167;-75
2023/01/03 13:51:50;;;;;;;7.37;2.60;;;10.30;99.90;;;;;;5077778;28;20174;-74
2023/01/03 13:54:16;;;;;;;13.17;2.80;;;10.10;99.90;;;;;;5077942;28;20178;-75
2023/01/03 13:56:41;;;;;;;10.13;3.40;;;10.10;99.90;;;;;;5095893;28;20174;-75
2023/01/03 13:59:18;;;;;;;7.37;3.27;;;10.30;99.90;;;;;;5077914;28;20182;-75
2023/01/03 14:01:50;;;;;;;6.50;2.87;;;10.20;99.90;;;;;;5077254;28;20174;-75
2023/01/03 14:04:25;;;;;;;10.73;3.37;;;10.10;99.90;;;;;;5095794;28;20181;-75
2023/01/03 14:07:05;;;;;;;7.93;3.27;;;10.20;99.90;;;;;;5077445;28;20174;-75
2023/01/03 14:10:15;;;;;;;13.00;3.10;;;10.00;99.90;;;;;;5077536;28;20633;-75
2023/01/03 14:13:20;;;;;;;7.50;3.37;;;10.00;99.90;;;;;;5056000;28;20183;-75
2023/01/03 14:15:47;;;;;;;8.83;3.37;;;9.80;99.90;;;;;;5044167;28;20268;-75
2023/01/03 14:18:13;;;;;;;9.80;3.33;;;9.90;99.90;;;;;;5095426;28;20652;-75
2023/01/03 14:20:45;;;;;;;11.90;3.23;;;10.00;99.90;;;;;;5095911;28;20169;-75
2023/01/03 14:23:14;;;;;;;12.07;3.57;;;10.00;99.90;;;;;;5095735;28;20174;-75
2023/01/03 14:25:43;;;;;;;9.77;3.30;;;10.10;99.90;;;;;;5095603;28;20201;-75